Araputanga, Brazil
Current Conditions -  °F | °C
As of 3:00 PM on Wednesday 28 Jan 2015 (Local Time) from SBCY Reporting Station
Scattered Clouds Scattered Clouds  
Wind Chill: 82°   Ceiling: Unl
Heat Index: 89°   Visibility: 6mi
Dew Point: 75°   Wind: 6mph
Humidity: 79%   Direction: 350°N
Pressure: 29.88"   Gusts: NA
Location:  15.47°S, 58.35°W
Report Text: SBCY 281800Z 35005KT 9999 SCT020 FEW025TCU SCT100 28/24 Q1012 RETS
Loading
Personal Weather Stations






























Interactive Weather Map New forecast layout! Learn more

10-Day Weather Forecast

Advertisements
Track Severe Weather on mobile